createdAt,value
2022-11-17T00:00:53.036Z,8.91
2022-11-17T00:05:56.118Z,12.36
2022-11-17T00:11:02.633Z,12.61
2022-11-17T00:16:05.993Z,10.92
2022-11-17T00:21:23.895Z,9.96
2022-11-17T00:26:35.119Z,9.26
2022-11-17T00:31:57.387Z,8.73
2022-11-17T00:37:00.386Z,8.28
2022-11-17T00:42:03.919Z,7.94
2022-11-17T00:47:06.934Z,8.93
2022-11-17T00:52:10.048Z,12.35
2022-11-17T00:57:13.056Z,12.38
2022-11-17T01:02:16.244Z,10.77
2022-11-17T01:07:19.494Z,9.85
2022-11-17T01:12:22.735Z,9.23
2022-11-17T01:17:25.709Z,8.76
2022-11-17T01:22:28.671Z,8.39
2022-11-17T01:27:31.657Z,8.09
2022-11-17T01:32:34.607Z,7.83
2022-11-17T01:37:37.756Z,9.18
2022-11-17T01:42:40.841Z,12.48
2022-11-17T01:47:54.401Z,12.58
2022-11-17T01:53:01.227Z,10.86
2022-11-17T01:58:12.365Z,9.88
2022-11-17T02:03:15.730Z,9.21
2022-11-17T02:08:22.455Z,8.65
2022-11-17T02:13:25.526Z,8.20
2022-11-17T02:18:28.850Z,7.88
2022-11-17T02:23:51.996Z,7.63
2022-11-17T02:29:03.699Z,8.96
2022-11-17T02:34:18.727Z,12.41
2022-11-17T02:39:26.505Z,12.26
2022-11-17T02:44:39.935Z,10.67
2022-11-17T02:49:55.631Z,9.71
2022-11-17T02:55:04.151Z,9.01
2022-11-17T03:00:10.396Z,8.49
2022-11-17T03:05:27.855Z,8.05
2022-11-17T03:10:49.955Z,7.70
2022-11-17T03:16:08.225Z,8.87
2022-11-17T03:21:22.167Z,12.33
2022-11-17T03:26:38.207Z,12.24
2022-11-17T03:31:43.393Z,10.55
2022-11-17T03:36:51.278Z,9.64
2022-11-17T03:42:00.101Z,8.97
2022-11-17T03:47:08.798Z,8.45
2022-11-17T03:52:12.013Z,8.03
2022-11-17T03:57:53.260Z,7.74
2022-11-17T04:02:59.031Z,9.31
2022-11-17T04:08:02.173Z,12.62
2022-11-17T04:13:23.850Z,12.48
2022-11-17T04:18:27.250Z,10.78
2022-11-17T04:23:30.175Z,9.84
2022-11-17T04:28:38.214Z,9.18
2022-11-17T04:33:45.617Z,8.66
2022-11-17T04:38:51.005Z,8.23
2022-11-17T04:43:54.630Z,7.88
2022-11-17T04:48:58.402Z,7.60
2022-11-17T04:54:02.345Z,8.72
2022-11-17T04:59:05.449Z,12.20
2022-11-17T05:04:11.125Z,12.56
2022-11-17T05:09:15.139Z,10.84
2022-11-17T05:14:20.892Z,9.76
2022-11-17T05:19:24.921Z,9.04
2022-11-17T05:24:28.185Z,8.51
2022-11-17T05:29:31.149Z,8.06
2022-11-17T05:34:34.109Z,7.69
2022-11-17T05:39:37.158Z,7.36
2022-11-17T05:44:40.221Z,8.50
2022-11-17T05:49:43.323Z,12.01
2022-11-17T05:54:46.217Z,12.10
2022-11-17T05:59:55.050Z,10.31
2022-11-17T06:04:59.017Z,9.32
2022-11-17T06:10:03.560Z,8.60
2022-11-17T06:15:06.871Z,8.04
2022-11-17T06:20:17.350Z,7.60
2022-11-17T06:25:20.925Z,7.24
2022-11-17T06:30:23.933Z,8.35
2022-11-17T06:35:28.941Z,11.73
2022-11-17T06:40:32.124Z,11.97
2022-11-17T06:45:44.046Z,10.15
2022-11-17T06:50:48.526Z,8.99
2022-11-17T06:55:59.326Z,8.23
2022-11-17T07:01:06.086Z,7.68
2022-11-17T07:06:11.173Z,7.22
2022-11-17T07:11:16.709Z,6.91
2022-11-17T07:16:23.826Z,6.70
2022-11-17T07:21:27.356Z,7.91
2022-11-17T07:26:30.517Z,11.46
2022-11-17T07:31:36.682Z,11.66
2022-11-17T07:36:39.609Z,9.92
2022-11-17T07:41:42.688Z,8.84
2022-11-17T07:46:45.791Z,8.15
2022-11-17T07:51:48.801Z,7.67
2022-11-17T07:56:51.786Z,7.28
2022-11-17T08:01:54.753Z,6.96
2022-11-17T08:06:57.873Z,6.72
2022-11-17T08:12:00.991Z,7.87
2022-11-17T08:17:04.540Z,11.49
2022-11-17T08:22:07.633Z,12.04
2022-11-17T08:27:10.628Z,10.18
2022-11-17T08:32:13.681Z,9.11
2022-11-17T08:37:16.599Z,8.48
2022-11-17T08:42:19.531Z,8.03
2022-11-17T08:47:22.622Z,7.65
2022-11-17T08:52:28.164Z,7.34
2022-11-17T08:57:31.993Z,7.09
2022-11-17T09:02:34.986Z,6.89
2022-11-17T09:07:38.015Z,7.92
2022-11-17T09:12:41.347Z,11.42
2022-11-17T09:17:47.833Z,11.25
2022-11-17T09:22:50.954Z,9.67
2022-11-17T09:27:54.128Z,8.82
2022-11-17T09:32:58.013Z,8.21
2022-11-17T09:38:01.890Z,7.75
2022-11-17T09:43:16.474Z,7.37
2022-11-17T09:48:41.166Z,7.06
2022-11-17T09:54:13.823Z,6.83
2022-11-17T09:59:20.958Z,8.23
2022-11-17T10:04:29.583Z,11.07
2022-11-17T10:09:44.363Z,9.79
2022-11-17T10:14:51.297Z,8.70
2022-11-17T10:19:54.367Z,8.04
2022-11-17T10:24:58.841Z,7.60
2022-11-17T10:30:07.317Z,7.24
2022-11-17T10:35:31.166Z,6.96
2022-11-17T10:40:39.981Z,6.72
2022-11-17T10:45:56.695Z,6.53
2022-11-17T10:51:09.281Z,7.97
2022-11-17T10:56:16.039Z,11.51
2022-11-17T11:01:32.531Z,10.94
2022-11-17T11:06:35.945Z,9.44
2022-11-17T11:11:56.488Z,8.59
2022-11-17T11:16:59.895Z,7.97
2022-11-17T11:22:45.906Z,7.53
2022-11-17T11:28:14.959Z,7.13
2022-11-17T11:33:33.417Z,6.81
2022-11-17T11:38:55.308Z,6.60
2022-11-17T11:44:19.852Z,6.42
2022-11-17T11:49:54.549Z,7.94
2022-11-17T11:55:05.871Z,11.59
2022-11-17T12:00:16.841Z,10.86
2022-11-17T12:05:29.334Z,9.50
2022-11-17T12:10:38.832Z,8.68
2022-11-17T12:15:41.870Z,8.06
2022-11-17T12:20:49.908Z,7.60
2022-11-17T12:25:57.403Z,7.24
2022-11-17T12:31:11.710Z,6.98
2022-11-17T12:36:29.715Z,6.76
2022-11-17T12:41:48.935Z,6.55
2022-11-17T12:47:02.778Z,6.40
2022-11-17T12:52:15.718Z,6.31
2022-11-17T12:57:30.475Z,7.79
2022-11-17T13:02:53.282Z,11.41
2022-11-17T13:08:20.528Z,10.83
2022-11-17T13:13:24.712Z,9.40
2022-11-17T13:18:33.243Z,8.69
2022-11-17T13:23:44.575Z,8.09
2022-11-17T13:28:49.292Z,7.59
2022-11-17T13:34:10.443Z,7.24
2022-11-17T13:39:17.150Z,6.97
2022-11-17T13:44:25.619Z,6.72
2022-11-17T13:49:39.374Z,6.48
2022-11-17T13:54:44.914Z,6.33
2022-11-17T13:59:48.132Z,6.20
2022-11-17T14:05:08.187Z,6.10
2022-11-17T14:10:20.979Z,6.02
2022-11-17T14:15:49.130Z,7.50
2022-11-17T14:21:05.308Z,11.07
2022-11-17T14:26:34.357Z,10.08
2022-11-17T14:31:37.305Z,8.79
2022-11-17T14:36:41.284Z,8.12
2022-11-17T14:41:45.753Z,7.60
2022-11-17T14:46:48.832Z,7.22
2022-11-17T14:51:51.881Z,6.91
2022-11-17T14:56:54.810Z,6.65
2022-11-17T15:01:57.877Z,6.41
2022-11-17T15:07:00.940Z,6.23
2022-11-17T15:12:04.298Z,6.12
2022-11-17T15:17:11.171Z,7.40
2022-11-17T15:22:17.112Z,11.04
2022-11-17T15:27:20.059Z,11.03
2022-11-17T15:32:22.990Z,9.41
2022-11-17T15:37:26.049Z,8.44
2022-11-17T15:42:29.057Z,7.81
2022-11-17T15:47:32.276Z,7.31
2022-11-17T15:52:57.066Z,6.88
2022-11-17T15:57:58.282Z,6.55
2022-11-17T16:03:01.976Z,6.33
2022-11-17T16:08:05.208Z,6.14
2022-11-17T16:13:08.195Z,5.98
2022-11-17T16:18:11.200Z,5.86
2022-11-17T16:23:15.486Z,7.17
2022-11-17T16:28:18.464Z,10.80
2022-11-17T16:33:21.557Z,10.90
2022-11-17T16:38:24.570Z,9.28
2022-11-17T16:43:29.318Z,8.30
2022-11-17T16:48:33.874Z,7.57
2022-11-17T16:53:36.914Z,6.99
2022-11-17T16:58:40.355Z,6.58
2022-11-17T17:03:43.802Z,6.24
2022-11-17T17:08:46.870Z,6.00
2022-11-17T17:13:50.144Z,5.80
2022-11-17T17:18:59.655Z,5.66
2022-11-17T17:24:03.377Z,5.58
2022-11-17T17:29:07.538Z,6.78
2022-11-17T17:34:12.224Z,10.40
2022-11-17T17:39:18.322Z,10.08
2022-11-17T17:44:21.513Z,8.61
2022-11-17T17:49:24.458Z,7.84
2022-11-17T17:54:27.485Z,7.32
2022-11-17T17:59:30.457Z,6.94
2022-11-17T18:04:33.584Z,6.61
2022-11-17T18:09:36.581Z,6.30
2022-11-17T18:14:41.515Z,6.10
2022-11-17T18:19:44.472Z,5.94
2022-11-17T18:24:47.419Z,5.79
2022-11-17T18:29:50.425Z,5.65
2022-11-17T18:34:53.367Z,5.57
2022-11-17T18:39:56.559Z,6.85
2022-11-17T18:44:59.548Z,10.52
2022-11-17T18:50:02.464Z,10.94
2022-11-17T18:55:06.070Z,9.28
2022-11-17T19:00:09.637Z,8.29
2022-11-17T19:05:12.639Z,7.64
2022-11-17T19:10:16.574Z,7.11
2022-11-17T19:15:19.511Z,6.69
2022-11-17T19:20:22.676Z,6.35
2022-11-17T19:25:25.614Z,6.08
2022-11-17T19:30:28.606Z,5.90
2022-11-17T19:35:31.555Z,5.74
2022-11-17T19:40:35.017Z,5.60
2022-11-17T19:45:37.936Z,6.73
2022-11-17T19:50:40.845Z,10.40
2022-11-17T19:55:43.804Z,10.44
2022-11-17T20:00:48.776Z,8.84
2022-11-17T20:05:51.778Z,7.92
2022-11-17T20:11:03.180Z,7.29
2022-11-17T20:16:11.945Z,6.78
2022-11-17T20:21:15.518Z,6.40
2022-11-17T20:26:21.441Z,6.08
2022-11-17T20:31:27.209Z,5.79
2022-11-17T20:36:32.908Z,5.59
2022-11-17T20:41:35.989Z,5.52
2022-11-17T20:46:39.027Z,5.46
2022-11-17T20:51:42.180Z,6.66
2022-11-17T20:56:45.119Z,10.32
2022-11-17T21:01:49.430Z,10.40
2022-11-17T21:06:52.527Z,8.82
2022-11-17T21:11:58.456Z,7.95
2022-11-17T21:17:01.753Z,7.36
2022-11-17T21:22:04.868Z,6.91
2022-11-17T21:27:07.894Z,6.53
2022-11-17T21:32:10.941Z,6.19
2022-11-17T21:37:13.945Z,5.93
2022-11-17T21:42:16.911Z,5.74
2022-11-17T21:47:21.655Z,5.56
2022-11-17T21:52:24.585Z,5.42
2022-11-17T21:57:27.556Z,5.33
2022-11-17T22:02:30.505Z,5.25
2022-11-17T22:07:33.520Z,5.19
2022-11-17T22:12:36.487Z,6.58
2022-11-17T22:17:39.456Z,10.26
2022-11-17T22:22:42.453Z,10.37
2022-11-17T22:27:45.391Z,8.76
2022-11-17T22:32:48.378Z,7.88
2022-11-17T22:37:51.337Z,7.26
2022-11-17T22:42:54.494Z,6.79
2022-11-17T22:47:57.397Z,6.41
2022-11-17T22:53:01.361Z,6.06
2022-11-17T22:58:04.495Z,5.81
2022-11-17T23:03:07.476Z,5.64
2022-11-17T23:08:10.455Z,5.49
2022-11-17T23:13:13.518Z,5.38
2022-11-17T23:18:16.613Z,5.30
2022-11-17T23:23:19.671Z,5.25
2022-11-17T23:28:22.633Z,5.19
2022-11-17T23:33:25.872Z,6.46
2022-11-17T23:38:31.076Z,10.16
2022-11-17T23:43:34.194Z,10.13
2022-11-17T23:48:37.429Z,8.63
2022-11-17T23:53:40.725Z,7.84
2022-11-17T23:58:44.307Z,7.24
